D/T METAR WX W/DIR W/SPE G/SPE TEMP DEWP
25/05/20 17:50 EGOM 251650Z AUTO 27016KT 9999 FEW210/// 14/05 Q1031 W (270°) 18.4mph 14°C 5°C
25/05/20 16:50 EGOM 251550Z AUTO 26017KT 9999 NCD 14/03 Q1031 W (260°) 19.6mph 14°C 3°C
25/05/20 15:50 EGOM 251450Z AUTO 27019KT 9999 NCD 15/06 Q1031 W (270°) 21.9mph 15°C 6°C
25/05/20 14:50 EGOM 251350Z AUTO 27019KT 9999 NCD 16/07 Q1031 W (270°) 21.9mph 16°C 7°C
25/05/20 13:50 EGOM 251250Z AUTO 22014KT 9999 BKN041/// 18/07 Q1031 SW (220°) 16.1mph 18°C 7°C
25/05/20 12:50 EGOM 251150Z AUTO 21016KT 9999 SCT035/// 18/07 Q1031 SSW (210°) 18.4mph 18°C 7°C
25/05/20 11:50 EGOM 251050Z AUTO 22013KT 9999 FEW026/// SCT030/// 16/08 Q1031 SW (220°) 15.0mph 16°C 8°C
25/05/20 10:50 EGOM 250950Z AUTO 21012KT 9999 SCT019/// 16/09 Q1032 SSW (210°) 13.8mph 16°C 9°C
25/05/20 09:50 EGOM 250850Z AUTO 23009KT 9999 BKN048/// 13/09 Q1032 SW (230°) 10.4mph 13°C 9°C
25/05/20 08:50 EGOM 250750Z AUTO 22006KT 9999 NCD 13/09 Q1032 SW (220°) 6.9mph 13°C 9°C
25/05/20 07:50 EGOM 250650Z AUTO 25003KT 9999 FEW034/// 11/08 Q1032 WSW (250°) 3.5mph 11°C 8°C
25/05/20 06:50 EGOM 250550Z AUTO 36002KT 9999 NCD 08/08 Q1032 N (360°) 2.3mph 8°C 8°C
25/05/20 05:50 EGOM 250450Z AUTO 04002KT 8000 NCD 06/06 Q1031 NE (40°) 2.3mph 6°C 6°C
25/05/20 04:50 EGOM 250350Z AUTO 25001KT 9999 NCD 05/05 Q1031 WSW (250°) 1.2mph 5°C 5°C
25/05/20 03:50 EGOM 250250Z AUTO 29004KT 9000 BR NCD 06/06 Q1031 BR WNW (290°) 4.6mph 6°C 6°C
25/05/20 02:50 EGOM 250150Z AUTO 33003KT 9999 NCD 07/06 Q1031 NNW (330°) 3.5mph 7°C 6°C
25/05/20 01:50 EGOM 250050Z AUTO 28003KT 9999 NCD 08/07 Q1031 W (280°) 3.5mph 8°C 7°C
25/05/20 00:50 EGOM 242350Z AUTO 27007KT 9999 FEW024/// BKN036/// 09/08 Q1031 W (270°) 8.1mph 9°C 8°C
24/05/20 23:50 EGOM 242250Z AUTO 28006KT 9999 SCT021/// BKN034/// 10/08 Q1031 W (280°) 6.9mph 10°C 8°C
24/05/20 22:50 EGOM 242150Z AUTO 26009KT 9999 FEW011/// SCT026/// BKN030/// 10/09 Q1031 W (260°) 10.4mph 10°C 9°C
24/05/20 21:50 EGOM 242050Z AUTO 25007KT 9000 BR FEW012/// BKN023/// 10/09 Q1030 BR WSW (250°) 8.1mph 10°C 9°C
24/05/20 20:50 EGOM 241950Z AUTO 25008KT 9999 NCD 11/09 Q1030 WSW (250°) 9.2mph 11°C 9°C
24/05/20 19:50 EGOM 241850Z AUTO 26013KT 9999 FEW010/// 12/10 Q1030 W (260°) 15.0mph 12°C 10°C
24/05/20 18:50 EGOM 241750Z AUTO 26015KT 9999 FEW012/// BKN036/// 12/10 Q1029 W (260°) 17.3mph 12°C 10°C
24/05/20 17:50 EGOM 241650Z AUTO 28018KT 9999 FEW020/// 13/09 Q1029 W (280°) 20.7mph 13°C 9°C
24/05/20 16:50 EGOM 241550Z AUTO 27022KT 9999 BKN022/// 13/08 Q1028 W (270°) 25.3mph 13°C 8°C
24/05/20 15:50 EGOM 241450Z AUTO 27021KT 9999 FEW015/// BKN026/// 14/10 Q1027 W (270°) 24.2mph 14°C 10°C
24/05/20 14:50 EGOM 241350Z AUTO 27019KT 9999 BKN012/// 12/10 Q1027 W (270°) 21.9mph 12°C 10°C
24/05/20 13:50 EGOM 241250Z AUTO 28020KT 9999 BKN012/// SCT020/// 12/10 Q1026 W (280°) 23.0mph 12°C 10°C
24/05/20 12:50 EGOM 241150Z AUTO 28021G31KT 9999 FEW006/// BKN011/// 12/10 Q1025 W (280°) 24.2mph 35.7mph 12°C 10°C
24/05/20 11:50 EGOM 241050Z AUTO 27017KT 6000 BR BKN003/// BKN011/// 11/10 Q1025 RERA BR W (270°) 19.6mph 11°C 10°C
24/05/20 10:50 EGOM 240950Z AUTO 27019KT 9999 BKN001/// 11/10 Q1024 RERA W (270°) 21.9mph 11°C 10°C
24/05/20 09:50 EGOM 240850Z AUTO 27015KT 0900 -DZ OVC001/// 10/10 Q1023 -DZ W (270°) 17.3mph 10°C 10°C
24/05/20 08:50 EGOM 240750Z AUTO 26014G24KT 9999 -RA BKN002/// 10/10 Q1022 -RA W (260°) 16.1mph 27.6mph 10°C 10°C
24/05/20 07:50 EGOM 240650Z AUTO 26018G29KT 4700 -DZ OVC001/// 10/10 Q1021 -DZ W (260°) 20.7mph 33.4mph 10°C 10°C
24/05/20 06:50 EGOM 240550Z AUTO 26021G31KT 0500 -RA OVC001/// 10/10 Q1020 -RA W (260°) 24.2mph 35.7mph 10°C 10°C
24/05/20 05:50 EGOM 240450Z AUTO 26020KT 4600 -RA BKN001/// 10/10 Q1019 -RA W (260°) 23.0mph 10°C 10°C
24/05/20 04:50 EGOM 240350Z AUTO 26021KT 2200 DZ BKN001/// 10/10 Q1017 DZ W (260°) 24.2mph 10°C 10°C
24/05/20 03:50 EGOM 240250Z AUTO 26022KT 6000 OVC001/// 10/10 Q1017 W (260°) 25.3mph 10°C 10°C
24/05/20 02:50 EGOM 240150Z AUTO 26021G31KT 4000 BR OVC001/// 09/09 Q1017 RERA BR W (260°) 24.2mph 35.7mph 9°C 9°C
24/05/20 01:50 EGOM 240050Z AUTO 26022KT 4800 -RA BKN001/// 09/09 Q1016 -RA W (260°) 25.3mph 9°C 9°C
24/05/20 00:50 EGOM 232350Z AUTO 26022KT 2200 DZ BKN004/// 08/08 Q1016 DZ W (260°) 25.3mph 8°C 8°C
23/05/20 23:50 EGOM 232250Z AUTO 26021KT 9999 FEW016/// BKN027/// 09/06 Q1016 W (260°) 24.2mph 9°C 6°C
23/05/20 22:50 EGOM 232150Z AUTO 26020KT 9999 FEW027/// SCT036/// BKN041/// 09/06 Q1016 W (260°) 23.0mph 9°C 6°C
23/05/20 21:50 EGOM 232050Z AUTO 26021KT 9999 FEW027/// BKN048/// 09/06 Q1015 RERA W (260°) 24.2mph 9°C 6°C
23/05/20 20:50 EGOM 231950Z AUTO 26023KT 7000 -RA BKN026/// SCT035/// 09/06 Q1015 -RA W (260°) 26.5mph 9°C 6°C
23/05/20 19:50 EGOM 231850Z AUTO 26021G35KT 9999 BKN028/// BKN034/// 09/06 Q1014 RERA W (260°) 24.2mph 40.3mph 9°C 6°C
23/05/20 18:50 EGOM 231750Z AUTO 26023KT 9999 -RA FEW015/// SCT023/// BKN028/// 09/07 Q1013 -RA W (260°) 26.5mph 9°C 7°C
23/05/20 17:50 EGOM 231650Z AUTO 25024G35KT 9999 BKN018/// BKN028/// BKN033/// 10/06 Q1013 RERA WSW (250°) 27.6mph 40.3mph 10°C 6°C
23/05/20 16:50 EGOM 231550Z AUTO 26028G39KT 9999 -RA BKN016/// SCT023/// 09/07 Q1012 -RA W (260°) 32.2mph 44.9mph 9°C 7°C
23/05/20 15:50 EGOM 231450Z AUTO 25030G42KT 9999 -RADZ BKN015/// BKN023/// 09/07 Q1011 -RA -DZ WSW (250°) 34.5mph 48.3mph 9°C 7°C
23/05/20 14:50 EGOM 231350Z AUTO 25027G38KT 9999 BKN019/// BKN026/// 09/06 Q1010 WSW (250°) 31.1mph 43.7mph 9°C 6°C
23/05/20 13:50 EGOM 231250Z AUTO 25031G47KT 9999 BKN022/// 09/05 Q1009 WSW (250°) 35.7mph 54.1mph 9°C 5°C
23/05/20 12:50 EGOM 231150Z AUTO 24028G38KT 9999 BKN019/// 09/06 Q1009 WSW (240°) 32.2mph 43.7mph 9°C 6°C
23/05/20 11:50 EGOM 231050Z AUTO 24030G42KT 9999 BKN015/// BKN023/// 08/06 Q1008 RERA WSW (240°) 34.5mph 48.3mph 8°C 6°C
23/05/20 10:50 EGOM 230950Z AUTO 24027G37KT 9999 -RA BKN013/// BKN023/// 08/06 Q1008 -RA WSW (240°) 31.1mph 42.6mph 8°C 6°C
23/05/20 09:50 EGOM 230850Z AUTO 24026G39KT 9000 -RA FEW013/// BKN017/// BKN026/// 08/06 Q1007 -RA WSW (240°) 29.9mph 44.9mph 8°C 6°C
23/05/20 08:50 EGOM 230750Z AUTO 24030G41KT 9999 BKN020/// 09/05 Q1006 WSW (240°) 34.5mph 47.2mph 9°C 5°C
23/05/20 07:50 EGOM 230650Z AUTO 24029G42KT 9999 SCT021/// BKN032/// 09/05 Q1006 WSW (240°) 33.4mph 48.3mph 9°C 5°C
23/05/20 06:50 EGOM 230550Z AUTO 23025G38KT 9999 FEW022/// BKN032/// 09/05 Q1006 SW (230°) 28.8mph 43.7mph 9°C 5°C
23/05/20 05:50 EGOM 230450Z AUTO 23025KT 9999 SCT021/// BKN040/// 08/05 Q1006 RERA SW (230°) 28.8mph 8°C 5°C
23/05/20 04:50 EGOM 230350Z AUTO 23021G31KT 9999 FEW020/// BKN045/// 09/05 Q1006 SW (230°) 24.2mph 35.7mph 9°C 5°C
23/05/20 03:50 EGOM 230250Z AUTO 24019KT 9999 FEW021/// BKN042/// 09/05 Q1007 WSW (240°) 21.9mph 9°C 5°C
23/05/20 02:50 EGOM 230150Z AUTO 23023G34KT 9999 SCT022/// SCT032/// BKN041/// 09/05 Q1007 SW (230°) 26.5mph 39.1mph 9°C 5°C
23/05/20 01:50 EGOM 230050Z AUTO 23024G34KT 9999 SCT020/// SCT100/// 09/05 Q1007 SW (230°) 27.6mph 39.1mph 9°C 5°C
23/05/20 00:50 EGOM 222350Z AUTO 24023G34KT 9999 FEW032/// BKN046/// 09/06 Q1007 WSW (240°) 26.5mph 39.1mph 9°C 6°C
22/05/20 23:50 EGOM 222250Z AUTO 24021KT 9999 FEW023/// BKN047/// 09/05 Q1007 RERA WSW (240°) 24.2mph 9°C 5°C
22/05/20 22:50 EGOM 222150Z AUTO 23018KT 9999 BKN046/// 10/06 Q1007 SW (230°) 20.7mph 10°C 6°C
22/05/20 21:50 EGOM 222050Z AUTO 24022KT 9999 BKN050/// 11/06 Q1007 WSW (240°) 25.3mph 11°C 6°C
22/05/20 20:50 EGOM 221950Z AUTO 23022KT 9999 FEW043/// BKN050/// 11/06 Q1006 SW (230°) 25.3mph 11°C 6°C
22/05/20 19:50 EGOM 221850Z AUTO 23024G34KT 9999 BKN050/// 11/06 Q1006 SW (230°) 27.6mph 39.1mph 11°C 6°C
22/05/20 18:50 EGOM 221750Z AUTO 23029G39KT 9999 FEW050/// 12/05 Q1005 SW (230°) 33.4mph 44.9mph 12°C 5°C
22/05/20 17:50 EGOM 221650Z AUTO 23029G39KT 9999 FEW034/// SCT050/// 13/06 Q1004 SW (230°) 33.4mph 44.9mph 13°C 6°C
22/05/20 16:50 EGOM 221550Z AUTO 23027KT 9999 FEW031/// SCT046/// 13/07 Q1004 SW (230°) 31.1mph 13°C 7°C
22/05/20 15:50 EGOM 221450Z AUTO 23026G40KT 9999 SCT032/// BKN043/// 14/06 Q1004 SW (230°) 29.9mph 46.0mph 14°C 6°C
22/05/20 14:50 EGOM 221350Z AUTO 22026G37KT 9999 FEW030/// SCT035/// BKN044/// 13/07 Q1004 SW (220°) 29.9mph 42.6mph 13°C 7°C
22/05/20 13:50 EGOM 221250Z AUTO 22023G38KT 9999 FEW027/// BKN036/// BKN050/// 12/06 Q1003 SW (220°) 26.5mph 43.7mph 12°C 6°C
22/05/20 12:50 EGOM 221150Z AUTO 21027KT 9999 FEW032/// BKN044/// 12/07 Q1003 SSW (210°) 31.1mph 12°C 7°C
22/05/20 11:50 EGOM 221050Z AUTO 21026KT 9999 FEW031/// BKN042/// 11/07 Q1003 RERA SSW (210°) 29.9mph 11°C 7°C
22/05/20 10:50 EGOM 220950Z AUTO 22027KT 9999 SCT028/// SCT038/// BKN045/// 13/08 Q1003 SW (220°) 31.1mph 13°C 8°C
22/05/20 09:50 EGOM 220850Z 22024G36KT 9999 FEW028 SCT032 13/06 Q1003 BLU SW (220°) 27.6mph 41.4mph 13°C 6°C
22/05/20 08:50 EGOM 220750Z 23024G36KT 9999 FEW024 13/06 Q1002 BLU SW (230°) 27.6mph 41.4mph 13°C 6°C
22/05/20 07:50 EGOM 220650Z AUTO 22021KT 9999 FEW027/// SCT043/// 12/08 Q1002 SW (220°) 24.2mph 12°C 8°C
22/05/20 06:50 EGOM 220550Z AUTO 22018G28KT 9999 SCT011/// 12/10 Q1002 RERA SW (220°) 20.7mph 32.2mph 12°C 10°C
22/05/20 05:50 EGOM 220450Z AUTO 18016KT 9999 BKN014/// BKN060/// 11/10 Q1002 RERA S (180°) 18.4mph 11°C 10°C
22/05/20 04:50 EGOM 220350Z AUTO 14014G24KT 9999 -RA BKN047/// 11/10 Q1003 -RA SE (140°) 16.1mph 27.6mph 11°C 10°C
22/05/20 03:50 EGOM 220250Z AUTO 13012KT 6000 -RA OVC045/// 11/10 Q1005 -RA SE (130°) 13.8mph 11°C 10°C
22/05/20 02:50 EGOM 220150Z AUTO 14016KT 9999 -RA OVC050/// 12/09 Q1007 -RA SE (140°) 18.4mph 12°C 9°C
22/05/20 01:50 EGOM 220050Z AUTO 12013KT 9999 -RA OVC060/// 13/06 Q1009 -RA ESE (120°) 15.0mph 13°C 6°C
22/05/20 00:50 EGOM 212350Z AUTO 10009KT 9999 OVC100/// 12/06 Q1011 E (100°) 10.4mph 12°C 6°C
21/05/20 23:50 EGOM 212250Z AUTO 10007KT 9999 BKN120/// 11/06 Q1012 E (100°) 8.1mph 11°C 6°C
21/05/20 22:50 EGOM 212150Z AUTO 07005KT 9999 BKN170/// 12/07 Q1014 ENE (70°) 5.8mph 12°C 7°C
21/05/20 21:50 EGOM 212050Z AUTO 11007KT 9999 BKN150/// BKN210/// 13/08 Q1015 ESE (110°) 8.1mph 13°C 8°C
21/05/20 20:50 EGOM 211950Z AUTO 13004KT 9999 BKN140/// 13/07 Q1016 SE (130°) 4.6mph 13°C 7°C
21/05/20 19:50 EGOM 211850Z AUTO 09001KT 9999 BKN160/// 15/07 Q1016 E (90°) 1.2mph 15°C 7°C
21/05/20 18:50 EGOM 211750Z AUTO 32004KT 9999 NCD 15/08 Q1016 NW (320°) 4.6mph 15°C 8°C